Time;durP1;ratioP1;P1;durP2;ratioP2;P2;SDS_P1;SDS_P2;PMS_P1;PMS_P2;Temp;Humidity;BMP_temperature;BMP_pressure;BME280_temperature;BME280_humidity;BME280_pressure;Samples;Min_cycle;Max_cycle;Signal;HPM_P1;HPM_P2
2022/04/05 00:00:11;;;;;;;17.40;6.07;;;;;;;20.74;34.34;101495.66;4181777;28;20103;-71
2022/04/05 00:02:13;;;;;;;10.32;5.63;;;;;;;20.71;34.22;101487.88;4180814;28;20214;-71
2022/04/05 00:04:14;;;;;;;15.38;5.10;;;;;;;20.68;34.16;101482.84;4181336;28;20124;-72
2022/04/05 00:06:16;;;;;;;10.32;4.78;;;;;;;20.74;34.38;101498.44;4181272;28;20041;-73
2022/04/05 00:08:23;;;;;;;10.73;4.90;;;;;;;20.68;34.51;101501.47;4182207;28;20423;-73
2022/04/05 00:10:24;;;;;;;16.63;5.47;;;;;;;20.74;34.41;101515.13;4181449;28;20419;-72
2022/04/05 00:12:25;;;;;;;12.10;5.00;;;;;;;20.73;34.19;101516.25;4182268;28;20070;-73
2022/04/05 00:14:27;;;;;;;12.65;4.80;;;;;;;20.62;34.39;101499.72;4181415;28;20094;-73
2022/04/05 00:16:29;;;;;;;9.63;4.97;;;;;;;20.72;34.30;101522.91;4165600;28;20038;-72
2022/04/05 00:18:30;;;;;;;10.77;5.07;;;;;;;20.72;34.30;101522.91;4147811;28;20080;-73
2022/04/05 00:20:32;;;;;;;11.18;4.95;;;;;;;20.67;34.22;101517.31;4171089;28;20075;-73
2022/04/05 00:22:37;;;;;;;8.63;5.10;;;;;;;20.70;34.19;101522.31;4181391;28;20041;-73
2022/04/05 00:24:41;;;;;;;9.32;4.35;;;;;;;20.56;34.04;101498.84;4181821;28;20464;-73
2022/04/05 00:26:45;;;;;;;6.97;3.92;;;;;;;20.72;33.82;101533.22;4181430;28;20041;-73
2022/04/05 00:28:49;;;;;;;10.27;4.77;;;;;;;20.71;34.16;101520.38;4181681;28;20476;-72
2022/04/05 00:30:50;;;;;;;6.57;4.30;;;;;;;20.72;33.76;101527.66;4181136;28;20095;-72
2022/04/05 00:32:51;;;;;;;7.18;4.28;;;;;;;20.71;34.01;101537.94;4181410;28;20053;-71
2022/04/05 00:34:53;;;;;;;7.28;4.43;;;;;;;20.60;33.64;101516.69;4180010;28;20045;-73
2022/04/05 00:36:56;;;;;;;8.48;4.20;;;;;;;20.70;34.01;101539.00;4181942;28;20075;-72
2022/04/05 00:39:00;;;;;;;7.13;4.10;;;;;;;20.70;33.96;101547.34;4180021;28;20090;-73
2022/04/05 00:41:05;;;;;;;11.65;4.05;;;;;;;20.69;33.81;101551.25;4181382;28;20091;-72
2022/04/05 00:43:06;;;;;;;7.45;3.60;;;;;;;20.67;33.67;101545.13;4180671;28;20099;-73
2022/04/05 00:45:16;;;;;;;7.03;3.63;;;;;;;20.70;33.97;101552.91;4180340;28;20113;-73
2022/04/05 00:47:20;;;;;;;7.43;3.60;;;;;;;20.69;33.78;101556.81;4180750;28;20422;-73
2022/04/05 00:49:32;;;;;;;5.10;3.38;;;;;;;20.52;33.73;101528.28;4180715;28;20037;-73
2022/04/05 00:51:34;;;;;;;6.30;3.42;;;;;;;20.69;34.10;101556.81;4180908;28;20041;-73
2022/04/05 00:53:38;;;;;;;6.20;3.28;;;;;;;20.69;33.98;101556.81;4180257;28;20106;-71
2022/04/05 00:55:40;;;;;;;16.05;3.92;;;;;;;20.70;34.12;101557.66;4163119;28;20042;-73
2022/04/05 00:57:50;;;;;;;3.90;2.75;;;;;;;20.68;33.70;101563.50;4181389;28;20045;-73
2022/04/05 01:00:04;;;;;;;6.00;3.20;;;;;;;20.70;34.07;101569.59;4173406;28;20045;-73
2022/04/05 01:02:05;;;;;;;8.95;3.42;;;;;;;20.71;34.01;101565.75;4179924;28;20045;-73
2022/04/05 01:04:08;;;;;;;8.60;3.38;;;;;;;20.71;33.67;101570.44;4180225;28;20045;-73
2022/04/05 01:06:10;;;;;;;6.35;3.25;;;;;;;20.69;34.09;101567.09;4178849;28;20045;-73
2022/04/05 01:08:12;;;;;;;9.68;3.22;;;;;;;20.70;34.07;101564.03;4180404;28;20357;-71
2022/04/05 01:10:14;;;;;;;7.22;3.30;;;;;;;20.71;33.95;101571.31;4180677;28;20029;-72
2022/04/05 01:12:15;;;;;;;9.52;3.47;;;;;;;20.65;34.04;101564.00;4180581;28;20037;-72
2022/04/05 01:14:17;;;;;;;4.13;2.92;;;;;;;20.70;33.67;101575.16;4180458;28;20041;-73
2022/04/05 01:16:20;;;;;;;4.03;2.80;;;;;;;20.62;33.82;101556.22;4181322;28;20045;-73
2022/04/05 01:18:24;;;;;;;7.70;3.40;;;;;;;20.69;34.05;101572.66;4181288;28;20099;-73
2022/04/05 01:20:26;;;;;;;5.65;2.95;;;;;;;20.71;33.87;101576.00;4181784;28;20082;-72
2022/04/05 01:22:27;;;;;;;4.22;2.63;;;;;;;20.65;33.64;101572.34;4168544;28;20494;-72
2022/04/05 01:24:28;;;;;;;4.82;3.05;;;;;;;20.55;33.74;101555.56;4181360;28;20082;-73
2022/04/05 01:26:37;;;;;;;5.22;2.90;;;;;;;20.67;33.96;101575.72;4182932;28;20045;-72
2022/04/05 01:28:39;;;;;;;4.82;2.50;;;;;;;20.68;33.89;101582.13;4181726;28;20033;-72
2022/04/05 01:30:41;;;;;;;4.30;2.88;;;;;;;20.68;33.67;101591.28;4181576;28;20045;-74
2022/04/05 01:32:43;;;;;;;5.60;2.70;;;;;;;20.54;33.57;101565.03;4181269;28;20075;-72
2022/04/05 01:34:44;;;;;;;4.88;2.55;;;;;;;20.58;33.71;101577.31;4182485;28;20029;-73
2022/04/05 01:36:50;;;;;;;4.25;2.30;;;;;;;20.67;33.50;101586.84;4182254;28;20074;-72
2022/04/05 01:38:51;;;;;;;4.70;2.35;;;;;;;20.66;33.79;101579.59;4181068;28;20037;-73
2022/04/05 01:40:55;;;;;;;3.95;2.03;;;;;;;20.49;33.57;101557.47;4181032;28;20609;-72
2022/04/05 01:43:02;;;;;;;3.88;2.78;;;;;;;20.62;33.62;101578.47;4163456;28;20080;-74
2022/04/05 01:45:04;;;;;;;3.13;2.30;;;;;;;20.67;34.03;101586.00;4183541;28;20091;-73
2022/04/05 01:47:11;;;;;;;6.60;2.22;;;;;;;20.66;33.47;101578.75;4180634;28;20071;-72
2022/04/05 01:49:18;;;;;;;2.38;1.92;;;;;;;20.66;33.52;101584.31;4181264;28;20090;-73
2022/04/05 01:51:19;;;;;;;3.35;2.15;;;;;;;20.54;33.58;101567.81;4180577;28;20071;-72
2022/04/05 01:53:23;;;;;;;5.05;2.33;;;;;;;20.56;33.88;101562.81;4180381;28;20037;-72
2022/04/05 01:55:34;;;;;;;4.15;2.67;;;;;;;20.58;33.61;101571.75;4181186;28;20028;-72
2022/04/05 01:57:38;;;;;;;6.40;2.50;;;;;;;20.60;33.32;101575.09;4180780;28;20660;-72
2022/04/05 01:59:40;;;;;;;4.00;2.20;;;;;;;20.64;33.68;101573.47;4180486;28;20041;-72
2022/04/05 02:01:43;;;;;;;3.92;2.60;;;;;;;20.56;33.63;101568.38;4181067;28;20087;-72
2022/04/05 02:03:44;;;;;;;4.35;2.55;;;;;;;20.53;33.80;101557.78;4162506;28;20033;-73
2022/04/05 02:05:48;;;;;;;3.25;2.10;;;;;;;20.63;33.73;101574.56;4179592;28;20036;-73
2022/04/05 02:07:50;;;;;;;3.17;2.17;;;;;;;20.64;33.43;101581.81;4182332;28;20044;-74
2022/04/05 02:09:54;;;;;;;5.80;2.20;;;;;;;20.64;33.54;101575.41;4183396;28;20102;-74
2022/04/05 02:11:55;;;;;;;7.15;2.67;;;;;;;20.64;33.69;101583.75;4183676;28;20170;-73
2022/04/05 02:13:56;;;;;;;3.33;2.25;;;;;;;20.64;33.55;101584.56;4183435;28;20032;-72
2022/04/05 02:16:01;;;;;;;3.78;1.80;;;;;;;20.51;33.68;101565.53;4182554;28;20114;-71
2022/04/05 02:18:03;;;;;;;5.13;2.20;;;;;;;20.64;33.24;101581.81;4183085;28;20041;-73
2022/04/05 02:20:05;;;;;;;3.35;1.95;;;;;;;20.61;33.34;101567.56;4165706;28;20064;-75
2022/04/05 02:22:07;;;;;;;2.35;1.80;;;;;;;20.53;33.41;101568.91;4183007;28;20040;-72
2022/04/05 02:24:09;;;;;;;2.50;2.05;;;;;;;20.57;33.33;101570.03;4183757;28;20102;-73
2022/04/05 02:26:11;;;;;;;2.00;1.80;;;;;;;20.62;33.28;101584.03;4183216;28;20476;-73
2022/04/05 02:28:12;;;;;;;3.70;2.00;;;;;;;20.63;33.37;101584.84;4182766;28;20377;-72
2022/04/05 02:30:14;;;;;;;3.53;1.95;;;;;;;20.62;33.64;101589.59;4183949;28;20086;-72
2022/04/05 02:32:17;;;;;;;2.83;1.80;;;;;;;20.60;33.57;101585.38;4182954;28;20094;-73
2022/04/05 02:34:20;;;;;;;2.08;1.50;;;;;;;20.56;33.46;101585.06;4182714;28;20041;-72
2022/04/05 02:36:21;;;;;;;4.00;2.13;;;;;;;20.53;33.40;101580.03;4183344;28;20767;-73
2022/04/05 02:38:22;;;;;;;3.03;1.90;;;;;;;20.60;33.45;101600.09;4183826;28;20071;-73
2022/04/05 02:40:27;;;;;;;2.30;1.80;;;;;;;20.60;33.47;101604.84;4182851;28;20122;-71
2022/04/05 02:42:31;;;;;;;5.35;2.10;;;;;;;20.59;33.50;101601.22;4182419;28;20041;-73
2022/04/05 02:44:34;;;;;;;1.70;1.60;;;;;;;20.56;33.67;101597.00;4182451;28;20419;-73
2022/04/05 02:46:35;;;;;;;2.08;1.80;;;;;;;20.54;33.72;101598.38;4164835;28;20076;-73
2022/04/05 02:48:43;;;;;;;2.88;1.80;;;;;;;20.48;33.37;101589.16;4183100;28;20419;-72
2022/04/05 02:50:44;;;;;;;3.05;1.85;;;;;;;20.58;33.54;101605.09;4165499;28;20037;-72
2022/04/05 02:52:48;;;;;;;3.08;1.90;;;;;;;20.60;33.38;101613.19;4182783;28;20094;-73
2022/04/05 02:54:50;;;;;;;2.90;1.95;;;;;;;20.60;33.42;101614.00;4182334;28;20114;-72
2022/04/05 02:56:51;;;;;;;3.28;1.70;;;;;;;20.57;33.61;101614.53;4183037;28;20103;-72
2022/04/05 02:58:53;;;;;;;2.47;1.73;;;;;;;20.56;33.38;101608.13;4182837;28;20442;-72
2022/04/05 03:01:00;;;;;;;2.60;1.52;;;;;;;20.52;33.58;101597.78;4183219;28;20529;-72
2022/04/05 03:03:07;;;;;;;1.83;1.55;;;;;;;20.55;33.20;101611.19;4184374;28;20029;-73
2022/04/05 03:05:09;;;;;;;2.78;1.80;;;;;;;20.58;33.30;101621.78;4183011;28;20055;-71
2022/04/05 03:07:15;;;;;;;2.30;1.80;;;;;;;20.59;33.33;101622.63;4182135;28;20036;-71
2022/04/05 03:09:22;;;;;;;2.35;1.98;;;;;;;20.58;33.34;101621.78;4182278;28;20037;-72
2022/04/05 03:11:31;;;;;;;2.40;1.70;;;;;;;20.55;33.57;101611.19;4182964;28;20565;-73
2022/04/05 03:13:36;;;;;;;2.20;1.42;;;;;;;20.58;33.33;101624.56;4181194;28;20091;-73
2022/04/05 03:15:50;;;;;;;2.17;1.83;;;;;;;20.58;33.38;101616.22;4182628;28;20369;-73
2022/04/05 03:17:55;;;;;;;3.42;1.65;;;;;;;20.58;33.65;101621.78;4182280;28;20045;-73
2022/04/05 03:19:58;;;;;;;2.80;1.67;;;;;;;20.55;33.79;101606.47;4182662;28;20158;-74
2022/04/05 03:22:00;;;;;;;2.35;2.00;;;;;;;20.59;33.35;101622.63;4186836;28;20082;-73
2022/04/05 03:24:04;;;;;;;2.42;1.75;;;;;;;20.58;33.26;101623.75;4183005;28;20094;-73
2022/04/05 03:26:08;;;;;;;1.95;1.63;;;;;;;20.57;33.40;101631.22;4182662;28;20103;-74
2022/04/05 03:28:09;;;;;;;1.85;1.50;;;;;;;20.55;33.87;101634.25;4182918;28;20475;-72
2022/04/05 03:30:16;;;;;;;3.47;1.67;;;;;;;20.52;33.57;101628.38;4182925;28;20510;-73
2022/04/05 03:32:17;;;;;;;2.78;1.77;;;;;;;20.56;33.34;101629.53;4182978;28;20472;-74
2022/04/05 03:34:18;;;;;;;2.65;1.90;;;;;;;20.52;33.92;101622.81;4181723;28;20087;-73
2022/04/05 03:36:22;;;;;;;3.00;1.67;;;;;;;20.52;33.42;101628.38;4182831;28;20458;-73
2022/04/05 03:38:26;;;;;;;3.58;1.65;;;;;;;20.55;33.77;101633.44;4181419;28;20040;-73
2022/04/05 03:40:32;;;;;;;1.63;1.20;;;;;;;20.54;33.46;101627.03;4182342;28;20095;-73
2022/04/05 03:42:35;;;;;;;;;;;;;;;20.53;33.55;101632.88;4182129;28;20111;-73
2022/04/05 03:44:37;;;;;;;2.95;1.95;;;;;;;20.57;34.00;101631.22;4182030;28;19913;-73
2022/04/05 03:46:38;;;;;;;1.92;1.52;;;;;;;20.56;33.78;101629.53;4182733;28;20041;-73
2022/04/05 03:48:39;;;;;;;3.20;1.60;;;;;;;20.50;33.83;101625.03;4164510;28;20075;-73
2022/04/05 03:50:43;;;;;;;4.25;1.92;;;;;;;20.51;33.99;101627.53;4181655;28;20091;-72
2022/04/05 03:52:45;;;;;;;3.15;1.50;;;;;;;20.56;33.94;101635.09;4182039;28;20103;-72
2022/04/05 03:54:47;;;;;;;3.30;1.75;;;;;;;20.56;33.75;101632.31;4181489;28;20090;-73
2022/04/05 03:56:49;;;;;;;8.70;4.95;;;;;;;20.56;33.70;101626.75;4181746;28;20049;-73
2022/04/05 03:58:50;;;;;;;20.83;12.32;;;;;;;20.56;33.93;101632.31;4182709;28;20029;-73
2022/04/05 04:00:54;;;;;;;34.25;22.55;;;;;;;20.55;33.78;101637.03;4164540;28;20046;-73
2022/04/05 04:03:03;;;;;;;18.08;9.52;;;;;;;20.56;33.61;101635.09;4181473;28;20041;-73
2022/04/05 04:05:05;;;;;;;11.45;6.82;;;;;;;20.46;34.02;101623.84;4181162;28;20107;-73
2022/04/05 04:07:07;;;;;;;8.88;5.20;;;;;;;20.55;34.05;101639.81;4181540;28;20048;-73
2022/04/05 04:09:08;;;;;;;11.95;7.10;;;;;;;20.56;33.69;101635.09;4180389;28;20041;-74
2022/04/05 04:11:10;;;;;;;13.02;6.78;;;;;;;20.57;33.80;101636.78;4182388;28;20078;-73
2022/04/05 04:13:11;;;;;;;9.85;7.00;;;;;;;20.53;33.95;101630.09;4181140;28;20114;-72
2022/04/05 04:15:12;;;;;;;12.15;7.63;;;;;;;20.52;33.79;101629.22;4181288;28;20102;-73
2022/04/05 04:17:14;;;;;;;10.05;7.20;;;;;;;20.55;33.63;101628.69;4182018;28;20434;-73
2022/04/05 04:19:15;;;;;;;11.13;6.13;;;;;;;20.56;33.94;101635.09;4164063;28;20084;-73
2022/04/05 04:21:22;;;;;;;10.13;6.03;;;;;;;20.56;34.00;101635.09;4181606;28;20040;-74
2022/04/05 04:23:24;;;;;;;8.73;5.70;;;;;;;20.53;33.87;101627.31;4163417;28;20435;-72
2022/04/05 04:25:28;;;;;;;10.70;6.35;;;;;;;20.55;33.88;101637.03;4181039;28;20037;-74
2022/04/05 04:27:33;;;;;;;11.00;6.97;;;;;;;20.56;33.86;101632.31;4181629;28;20049;-73
2022/04/05 04:29:34;;;;;;;13.05;7.85;;;;;;;20.56;33.92;101635.09;4179769;28;20067;-73
2022/04/05 04:31:36;;;;;;;10.85;6.88;;;;;;;20.46;33.70;101612.72;4181297;28;20095;-73
2022/04/05 04:33:38;;;;;;;9.43;6.00;;;;;;;20.55;33.40;101639.81;4181467;28;20094;-74
2022/04/05 04:35:41;;;;;;;8.77;6.28;;;;;;;20.56;33.79;101635.09;4181217;28;20045;-73
2022/04/05 04:37:42;;;;;;;10.88;5.90;;;;;;;20.53;33.79;101635.66;4182174;28;20079;-73
2022/04/05 04:39:43;;;;;;;10.35;6.05;;;;;;;20.56;33.62;101626.75;4181126;28;20037;-73
2022/04/05 04:41:48;;;;;;;8.10;5.35;;;;;;;20.42;33.55;101611.56;4179879;28;20484;-74
2022/04/05 04:43:50;;;;;;;10.15;5.95;;;;;;;20.55;33.50;101625.09;4164569;28;20374;-73
2022/04/05 04:45:56;;;;;;;9.18;5.82;;;;;;;20.49;33.81;101609.47;4181629;28;20495;-73
2022/04/05 04:48:03;;;;;;;7.97;4.93;;;;;;;20.45;33.69;101603.53;4182283;28;20475;-73
2022/04/05 04:50:07;;;;;;;8.32;5.35;;;;;;;20.56;33.94;101615.63;4181448;28;20045;-73
2022/04/05 04:52:10;;;;;;;7.95;4.65;;;;;;;20.54;33.44;101617.84;4162639;28;20423;-74
2022/04/05 04:54:12;;;;;;;8.18;4.93;;;;;;;20.54;33.40;101617.84;4182210;28;20468;-72
2022/04/05 04:56:13;;;;;;;7.13;4.68;;;;;;;20.55;33.55;101622.31;4181437;28;20098;-71
2022/04/05 04:58:15;;;;;;;13.75;7.70;;;;;;;20.53;33.68;101618.97;4181545;28;20052;-73
2022/04/05 05:00:17;;;;;;;7.90;5.25;;;;;;;20.55;33.57;101619.53;4182581;28;20029;-74
2022/04/05 05:02:25;;;;;;;7.85;4.97;;;;;;;20.55;33.92;101616.75;4181803;28;20041;-73
2022/04/05 05:04:26;;;;;;;9.75;5.18;;;;;;;20.55;33.63;101623.13;4164536;28;20029;-73
2022/04/05 05:06:28;;;;;;;8.03;5.33;;;;;;;20.55;33.47;101622.31;4165177;28;20075;-74
2022/04/05 05:08:33;;;;;;;8.52;5.43;;;;;;;20.38;33.93;101600.13;4182558;28;20067;-73
2022/04/05 05:10:34;;;;;;;;;;;;;;;20.53;33.51;101630.91;4182773;28;20381;-73
2022/04/05 05:12:35;;;;;;;6.90;4.97;;;;;;;20.57;33.58;101628.44;4178483;28;19913;-73
2022/04/05 05:14:38;;;;;;;9.43;5.28;;;;;;;20.58;33.76;101626.53;4180494;28;20041;-73
2022/04/05 05:16:39;;;;;;;9.90;5.75;;;;;;;20.52;33.69;101622.81;4181017;28;20091;-73
2022/04/05 05:18:40;;;;;;;9.40;5.22;;;;;;;20.55;33.79;101627.88;4180859;28;20041;-73
2022/04/05 05:20:43;;;;;;;7.03;4.72;;;;;;;20.54;34.01;101627.03;4180654;28;20118;-73
2022/04/05 05:22:44;;;;;;;7.07;4.68;;;;;;;20.54;33.60;101631.75;4180482;28;20032;-73
2022/04/05 05:24:47;;;;;;;7.75;4.63;;;;;;;20.52;33.52;101622.81;4181151;28;20037;-73
2022/04/05 05:26:48;;;;;;;8.13;5.18;;;;;;;20.55;33.63;101630.66;4181219;28;20029;-73
2022/04/05 05:28:49;;;;;;;7.25;4.70;;;;;;;20.48;33.83;101621.66;4180740;28;20041;-73
2022/04/05 05:30:51;;;;;;;6.93;5.00;;;;;;;20.54;33.67;101634.53;4181723;28;20079;-73
2022/04/05 05:32:52;;;;;;;6.05;4.18;;;;;;;20.54;33.78;101632.59;4181486;28;20158;-73
2022/04/05 05:34:54;;;;;;;7.57;4.50;;;;;;;20.53;33.85;101638.44;4181118;28;20095;-72
2022/04/05 05:36:58;;;;;;;6.35;3.85;;;;;;;20.39;33.54;101603.75;4181339;28;20107;-73
2022/04/05 05:38:59;;;;;;;6.40;4.10;;;;;;;20.52;33.95;101623.66;4181295;28;20541;-73
2022/04/05 05:41:01;;;;;;;7.28;4.40;;;;;;;20.51;33.95;101626.72;4180805;28;20037;-73
2022/04/05 05:43:04;;;;;;;6.28;4.10;;;;;;;20.53;33.83;101630.09;4183630;28;20040;-72
2022/04/05 05:45:06;;;;;;;6.72;4.32;;;;;;;20.51;33.80;101632.28;4184453;28;20071;-73
2022/04/05 05:47:09;;;;;;;7.82;4.45;;;;;;;20.51;33.89;101632.28;4184660;28;20110;-74
2022/04/05 05:49:13;;;;;;;8.27;4.30;;;;;;;20.45;33.72;101616.59;4184432;28;20423;-73
2022/04/05 05:51:14;;;;;;;6.95;4.25;;;;;;;20.51;33.64;101632.28;4184807;28;20110;-74
2022/04/05 05:53:16;;;;;;;9.55;4.80;;;;;;;20.49;33.88;101623.38;4183869;28;20095;-74
2022/04/05 05:55:18;;;;;;;8.70;4.40;;;;;;;20.51;34.17;101627.53;4184542;28;20444;-73
2022/04/05 05:57:22;;;;;;;9.05;3.80;;;;;;;20.51;33.97;101627.53;4184711;28;20037;-74
2022/04/05 05:59:26;;;;;;;8.25;4.15;;;;;;;20.47;34.22;101626.38;4184325;28;20040;-72
2022/04/05 06:01:27;;;;;;;6.95;4.25;;;;;;;20.50;34.20;101625.03;4184568;28;20440;-73
2022/04/05 06:03:31;;;;;;;8.18;3.90;;;;;;;20.49;34.01;101623.38;4183856;28;20045;-73
2022/04/05 06:05:33;;;;;;;9.43;4.70;;;;;;;20.41;34.05;101615.44;4183923;28;20067;-73
2022/04/05 06:07:35;;;;;;;10.35;4.13;;;;;;;20.51;34.22;101618.38;4183114;28;20049;-73
2022/04/05 06:09:36;;;;;;;7.35;4.07;;;;;;;20.52;34.09;101623.66;4183597;28;20472;-73
2022/04/05 06:11:38;;;;;;;8.38;4.13;;;;;;;20.49;34.17;101615.84;4183865;28;20087;-73
2022/04/05 06:13:39;;;;;;;8.85;4.57;;;;;;;20.47;34.17;101608.84;4183418;28;20036;-73
2022/04/05 06:15:41;;;;;;;8.43;4.13;;;;;;;20.47;34.17;101608.84;4183396;28;20029;-73
2022/04/05 06:17:44;;;;;;;10.23;4.18;;;;;;;20.51;33.84;101615.59;4183867;28;20037;-73
2022/04/05 06:19:47;;;;;;;8.60;4.07;;;;;;;20.46;34.31;101609.94;4183898;28;20106;-73
2022/04/05 06:21:48;;;;;;;10.73;4.50;;;;;;;20.51;34.10;101615.59;4183424;28;20045;-73
2022/04/05 06:23:50;;;;;;;9.10;4.50;;;;;;;20.52;34.33;101618.09;4184054;28;20098;-73
2022/04/05 06:25:51;;;;;;;7.55;4.22;;;;;;;20.49;34.04;101617.81;4183386;28;20053;-73
2022/04/05 06:27:56;;;;;;;9.95;4.43;;;;;;;20.52;33.99;101623.66;4183185;28;20045;-73
2022/04/05 06:29:57;;;;;;;8.77;4.55;;;;;;;20.53;34.10;101619.78;4183604;28;20044;-73
2022/04/05 06:32:02;;;;;;;10.90;4.53;;;;;;;20.42;33.88;101603.22;4183947;28;20033;-73
2022/04/05 06:34:03;;;;;;;10.93;5.10;;;;;;;20.51;34.25;101621.16;4183548;28;20095;-72
2022/04/05 06:36:08;;;;;;;8.95;4.40;;;;;;;20.52;34.32;101617.25;4182864;28;20036;-72
2022/04/05 06:38:12;;;;;;;10.15;4.85;;;;;;;20.53;34.22;101618.97;4183529;28;20041;-72
2022/04/05 06:40:20;;;;;;;9.25;4.75;;;;;;;20.42;34.41;101600.44;4184146;28;20037;-72
2022/04/05 06:42:22;;;;;;;12.10;5.38;;;;;;;20.52;34.42;101617.25;4184020;28;20037;-72
2022/04/05 06:44:29;;;;;;;11.93;4.88;;;;;;;20.53;34.08;101618.97;4183656;28;20037;-73
2022/04/05 06:46:30;;;;;;;10.02;5.38;;;;;;;20.52;33.98;101625.59;4166594;28;20033;-72
2022/04/05 06:48:31;;;;;;;8.68;5.35;;;;;;;20.47;34.05;101614.41;4184186;28;20040;-73
2022/04/05 06:50:34;;;;;;;11.65;5.20;;;;;;;20.52;34.41;101622.81;4184577;28;20040;-73
2022/04/05 06:52:40;;;;;;;9.05;5.05;;;;;;;20.51;34.35;101627.53;4185062;28;20094;-73
2022/04/05 06:54:42;;;;;;;11.88;5.45;;;;;;;20.52;34.25;101633.94;4186407;28;20102;-73
2022/04/05 06:56:44;;;;;;;12.95;5.78;;;;;;;20.52;34.09;101631.16;4193028;28;20033;-73
2022/04/05 06:58:45;;;;;;;11.30;5.30;;;;;;;20.52;34.24;101637.56;4197541;28;20037;-72
2022/04/05 07:00:49;;;;;;;10.38;5.13;;;;;;;20.47;34.29;101625.50;4195811;28;20067;-72
2022/04/05 07:02:52;;;;;;;11.57;5.40;;;;;;;20.52;34.10;101642.28;4195962;28;20033;-73
2022/04/05 07:04:53;;;;;;;7.35;4.57;;;;;;;20.51;34.15;101648.94;4194260;28;20037;-72
2022/04/05 07:06:55;;;;;;;7.88;4.65;;;;;;;20.50;33.97;101647.28;4195394;28;20041;-72
2022/04/05 07:08:59;;;;;;;11.68;5.05;;;;;;;20.50;34.23;101647.28;4190518;28;20037;-73
2022/04/05 07:11:04;;;;;;;9.00;4.85;;;;;;;20.49;34.23;101645.59;4187880;28;20053;-74
2022/04/05 07:13:08;;;;;;;9.40;5.00;;;;;;;20.49;34.21;101646.44;4187069;28;20037;-73
2022/04/05 07:15:10;;;;;;;9.33;4.30;;;;;;;20.49;34.39;101645.59;4183724;28;20075;-73
2022/04/05 07:17:17;;;;;;;7.95;4.18;;;;;;;20.42;34.48;101634.63;4166947;28;20321;-72
2022/04/05 07:19:18;;;;;;;10.93;4.60;;;;;;;20.50;33.93;101650.06;4184284;28;20045;-72
2022/04/05 07:21:20;;;;;;;9.57;4.57;;;;;;;20.47;33.88;101643.06;4184961;28;20488;-73
2022/04/05 07:23:22;;;;;;;10.52;5.43;;;;;;;20.49;34.22;101657.56;4184089;28;20059;-72
2022/04/05 07:25:26;;;;;;;9.27;4.80;;;;;;;20.49;33.99;101645.59;4182760;28;20033;-72
2022/04/05 07:27:33;;;;;;;9.23;4.55;;;;;;;20.39;34.09;101626.84;4182954;28;20098;-72
2022/04/05 07:29:34;;;;;;;6.88;3.92;;;;;;;20.48;34.27;101646.69;4183088;28;20041;-72
2022/04/05 07:31:36;;;;;;;10.05;4.60;;;;;;;20.49;33.90;101660.34;4185071;28;20381;-73
2022/04/05 07:33:37;;;;;;;9.25;4.22;;;;;;;20.48;34.30;101655.88;4183860;28;20103;-74
2022/04/05 07:35:38;;;;;;;10.00;4.45;;;;;;;20.50;34.08;101655.63;4182826;28;20049;-74
2022/04/05 07:37:40;;;;;;;8.05;4.75;;;;;;;20.46;34.16;101649.69;4183807;28;20083;-73
2022/04/05 07:39:42;;;;;;;7.00;4.07;;;;;;;20.47;34.33;101656.97;4182993;28;20040;-73
2022/04/05 07:41:46;;;;;;;7.30;4.30;;;;;;;20.48;34.11;101655.03;4182810;28;20037;-73
2022/04/05 07:43:47;;;;;;;6.78;4.68;;;;;;;20.42;34.31;101644.91;4181921;28;20033;-73
2022/04/05 07:45:50;;;;;;;6.70;4.38;;;;;;;20.46;34.04;101658.03;4181396;28;20041;-73
2022/04/05 07:47:51;;;;;;;11.52;5.40;;;;;;;20.48;33.99;101655.88;4182146;28;20508;-73
2022/04/05 07:49:52;;;;;;;7.53;3.92;;;;;;;20.48;34.08;101644.78;4182143;28;20040;-73
2022/04/05 07:51:54;;;;;;;9.60;4.15;;;;;;;20.49;33.82;101645.59;4182131;28;20040;-73
2022/04/05 07:53:58;;;;;;;7.55;3.70;;;;;;;20.48;34.23;101643.91;4183443;28;20059;-73
2022/04/05 07:55:59;;;;;;;8.07;4.05;;;;;;;20.47;33.84;101648.63;4181850;28;20037;-72
2022/04/05 07:58:03;;;;;;;7.15;4.22;;;;;;;20.48;34.17;101641.13;4181945;28;20119;-73
2022/04/05 08:00:05;;;;;;;6.82;3.42;;;;;;;20.42;34.01;101631.03;4181942;28;20068;-72
2022/04/05 08:02:08;;;;;;;7.82;3.60;;;;;;;20.48;33.96;101643.91;4182064;28;20091;-72
2022/04/05 08:04:09;;;;;;;6.25;3.42;;;;;;;20.48;34.22;101643.91;4180998;28;20468;-72
2022/04/05 08:06:11;;;;;;;5.85;4.40;;;;;;;20.48;33.76;101639.22;4181514;28;20098;-72
2022/04/05 08:08:15;;;;;;;6.60;4.03;;;;;;;20.47;33.92;101631.06;4181523;28;20076;-72
2022/04/05 08:10:17;;;;;;;7.05;3.72;;;;;;;20.41;33.95;101619.06;4181972;28;20090;-72
2022/04/05 08:12:18;;;;;;;9.85;4.00;;;;;;;20.46;33.93;101624.69;4181425;28;20087;-72
2022/04/05 08:14:20;;;;;;;7.82;3.58;;;;;;;20.45;34.01;101642.47;4181123;28;20094;-72
2022/04/05 08:16:21;;;;;;;7.20;4.18;;;;;;;20.46;33.67;101640.53;4181059;28;20045;-72
2022/04/05 08:18:22;;;;;;;6.28;4.57;;;;;;;20.45;34.06;101641.63;4181084;28;20094;-72
2022/04/05 08:20:24;;;;;;;7.72;3.65;;;;;;;20.45;33.99;101642.47;4182199;28;20024;-72
2022/04/05 08:22:26;;;;;;;7.20;3.35;;;;;;;20.42;33.75;101640.19;4182302;28;20029;-72
2022/04/05 08:24:27;;;;;;;6.25;3.53;;;;;;;20.44;33.65;101645.53;4180883;28;20095;-72
2022/04/05 08:26:29;;;;;;;4.78;3.78;;;;;;;20.36;33.87;101645.97;4180854;28;20098;-72
2022/04/05 08:28:30;;;;;;;5.55;2.85;;;;;;;20.44;34.01;101656.63;4181162;28;20094;-72
2022/04/05 08:30:32;;;;;;;6.88;3.17;;;;;;;20.44;34.06;101654.69;4181930;28;20037;-72
2022/04/05 08:32:36;;;;;;;5.72;3.20;;;;;;;20.43;33.84;101653.00;4181479;28;20041;-72
2022/04/05 08:34:41;;;;;;;6.30;3.67;;;;;;;20.41;34.03;101643.25;4181362;28;20095;-72
2022/04/05 08:36:42;;;;;;;5.40;3.40;;;;;;;20.45;34.02;101633.28;4181059;28;20041;-72
2022/04/05 08:38:43;;;;;;;5.57;3.53;;;;;;;20.43;33.73;101641.88;4181038;28;20098;-72
2022/04/05 08:40:45;;;;;;;6.63;3.30;;;;;;;20.43;33.96;101649.38;4181825;28;20075;-72
2022/04/05 08:42:49;;;;;;;6.13;3.70;;;;;;;20.43;34.04;101654.94;4180629;28;20086;-72
2022/04/05 08:44:52;;;;;;;5.68;3.13;;;;;;;20.39;33.88;101646.31;4181601;28;20037;-72
2022/04/05 08:46:53;;;;;;;4.65;2.80;;;;;;;20.41;33.97;101643.25;4181741;28;20029;-72
2022/04/05 08:48:55;;;;;;;6.40;3.17;;;;;;;20.41;34.01;101644.09;4180788;28;20098;-72
2022/04/05 08:51:04;;;;;;;4.50;2.90;;;;;;;20.42;34.07;101640.19;4180765;28;20095;-72
2022/04/05 08:53:11;;;;;;;6.22;3.28;;;;;;;20.42;33.89;101628.25;4164054;28;20107;-72
2022/04/05 08:55:14;;;;;;;4.07;2.85;;;;;;;20.42;33.74;101633.81;4181538;28;20074;-72
2022/04/05 08:57:15;;;;;;;4.93;2.90;;;;;;;20.41;33.56;101646.88;4180922;28;20037;-72
2022/04/05 08:59:17;;;;;;;4.85;3.58;;;;;;;20.42;33.92;101639.38;4181564;28;20087;-72
2022/04/05 09:01:21;;;;;;;4.65;3.08;;;;;;;20.41;33.63;101637.69;4180246;28;20427;-72
2022/04/05 09:03:32;;;;;;;7.38;3.65;;;;;;;20.40;34.02;101633.25;4180859;28;20029;-72
2022/04/05 09:05:44;;;;;;;4.78;3.15;;;;;;;20.36;33.77;101618.19;4180688;28;20045;-72
2022/04/05 09:07:47;;;;;;;5.10;3.15;;;;;;;20.40;33.50;101625.72;4180740;28;20040;-72
2022/04/05 09:10:06;;;;;;;6.13;3.28;;;;;;;20.38;33.71;101627.91;4180879;28;20041;-72
2022/04/05 09:12:16;;;;;;;5.90;3.38;;;;;;;20.39;33.71;101624.06;4180516;28;20041;-72
2022/04/05 09:14:28;;;;;;;6.18;3.33;;;;;;;19.98;33.67;101544.94;4180184;28;20044;-72
2022/04/05 09:16:33;;;;;;;4.47;3.20;;;;;;;20.39;33.83;101607.38;4180439;28;20381;-72
2022/04/05 09:18:44;;;;;;;5.22;3.35;;;;;;;20.40;33.54;101608.22;4180923;28;20041;-72
2022/04/05 09:20:51;;;;;;;3.97;2.55;;;;;;;20.39;33.81;101601.81;4180437;28;20029;-72
2022/04/05 09:22:54;;;;;;;5.38;3.05;;;;;;;20.39;33.59;101603.75;4180863;28;20075;-72
2022/04/05 09:25:03;;;;;;;4.35;3.00;;;;;;;20.39;33.35;101603.75;4180101;28;20037;-72
2022/04/05 09:27:06;;;;;;;5.68;3.10;;;;;;;20.37;33.44;101604.00;4180574;28;20071;-72
2022/04/05 09:29:08;;;;;;;4.63;2.78;;;;;;;20.33;33.55;101602.00;4180727;28;20087;-72
2022/04/05 09:31:14;;;;;;;4.50;2.92;;;;;;;20.40;33.32;101613.78;4180854;28;20083;-73